Weather observations for the past three days for
Alexandria, Chandler Field
| Date | Time (cdt) | Wind (mph) | Vis. (mi.) | Weather | Sky Cond. | Temperature (ºF) | Relative Humidity | Wind Chill (°F) | Heat Index (°F) | Pressure | Precipitation (in) | ||||||
|---|---|---|---|---|---|---|---|---|---|---|---|---|---|---|---|---|---|
| Air | Dwpt | 6 hour | altimeter (in) | sea level (mb) | 1 hr | 3 hr | 6 hr | ||||||||||
| Max. | Min. | ||||||||||||||||
| 07 | 15:53 | NW 14 G 26 | 10.00 | Partly Cloudy | SCT080 | 57.9 | 19 | 22% | 29.81 | 1010.7 | |||||||
| 07 | 14:53 | NW 10 G 23 | 10.00 | Mostly Cloudy | BKN075 | 57 | 19.9 | 24% | 29.83 | 1011.2 | |||||||
| 07 | 13:53 | W 13 G 22 | 10.00 | Mostly Cloudy | BKN075 | 55 | 19.9 | 25% | 29.84 | 1011.6 | |||||||
| 07 | 12:53 | W 8 G 21 | 10.00 | Mostly Cloudy | BKN075 | 55 | 19.9 | 55 | 30.9 | 25% | 29.86 | 1012.3 | |||||
| 07 | 11:53 | W 13 G 21 | 10.00 | Overcast | OVC065 | 50 | 19.9 | 30% | 46 | 29.88 | 1012.8 | ||||||
| 07 | 10:53 | SW 9 | 10.00 | Fair | CLR | 50 | 19.9 | 30% | 47 | 29.89 | 1013.1 | ||||||
| 07 | 09:53 | SW 9 | 10.00 | Fair | CLR | 46.9 | 19 | 33% | 43 | 29.89 | 1013.4 | ||||||
| 07 | 08:53 | SW 8 | 10.00 | Fair | CLR | 43 | 21.9 | 43% | 39 | 29.89 | 1013.4 | ||||||
| 07 | 07:53 | SW 8 | 10.00 | Fair | CLR | 37.9 | 25 | 60% | 33 | 29.9 | 1013.7 | ||||||
| 07 | 06:53 | SW 8 | 10.00 | Fair | CLR | 30 | 23 | 30.9 | 26.1 | 75% | 23 | 29.89 | 1013.7 | ||||
| 07 | 05:53 | SW 9 | 10.00 | Fair | CLR | 28 | 21 | 75% | 20 | 29.89 | 1013.8 | ||||||
| 07 | 04:53 | SW 8 | 10.00 | Fair | CLR | 27 | 19.9 | 75% | 19 | 29.9 | 1014.0 | ||||||
| 07 | 03:53 | SW 6 | 10.00 | Fair | CLR | 26.1 | 19.9 | 78% | 20 | 29.9 | 1014.2 | ||||||
| 07 | 02:53 | S 3 | 10.00 | Fair | CLR | 28 | 21 | 75% | 29.9 | 1014.2 | |||||||
| 07 | 01:53 | S 5 | 10.00 | Fair | CLR | 28.9 | 23 | 78% | 25 | 29.91 | 1014.4 | ||||||
| 07 | 00:53 | S 3 | 10.00 | Fair | CLR | 30 | 24.1 | 41 | 28.9 | 79% | 29.93 | 1014.9 | |||||
| 06 | 23:53 | Calm | 10.00 | Fair | CLR | 34 | 21.9 | 61% | 29.94 | 1015.4 | |||||||
| 06 | 22:53 | Calm | 10.00 | A Few Clouds | FEW060 | 37 | 21.9 | 54% | 29.96 | 1015.9 | |||||||
| 06 | 21:53 | NW 5 | 10.00 | Overcast | OVC060 | 37.9 | 21.9 | 52% | 35 | 29.97 | 1016.2 | ||||||
| 06 | 20:53 | NW 6 | 10.00 | Overcast | OVC060 | 39 | 21 | 48% | 35 | 29.96 | 1016.0 | ||||||
| 06 | 19:53 | NW 7 | 10.00 | Overcast | OVC060 | 39.9 | 21 | 47% | 36 | 29.96 | 1016.0 | ||||||
| 06 | 18:53 | NW 9 | 10.00 | Overcast | FEW048 OVC060 | 41 | 21 | 42.1 | 39.9 | 45% | 36 | 29.97 | 1016.3 | ||||
| 06 | 17:53 | W 10 | 10.00 | Overcast | OVC055 | 41 | 21 | 45% | 35 | 29.98 | 1016.8 | ||||||
| 06 | 16:53 | W 8 | 10.00 | Overcast | OVC050 | 41 | 21 | 45% | 36 | 29.99 | 1017.0 | ||||||
| 06 | 15:53 | NW 10 | 10.00 | Overcast | OVC046 | 41 | 21 | 45% | 35 | 30 | 1017.5 | ||||||
| 06 | 14:53 | NW 15 | 10.00 | Overcast | OVC045 | 41 | 19.9 | 43% | 34 | 30.01 | 1017.7 | ||||||
| 06 | 13:53 | W 13 | 10.00 | Overcast | OVC046 | 42.1 | 19.9 | 41% | 36 | 30.01 | 1017.6 | ||||||
| 06 | 12:53 | W 15 G 23 | 10.00 | Overcast | OVC045 | 41 | 19 | 42.1 | 34 | 41% | 34 | 30.02 | 1017.9 | ||||
| 06 | 11:53 | W 13 G 22 | 10.00 | Overcast | OVC043 | 39.9 | 19 | 43% | 33 | 30.03 | 1018.3 | ||||||
| 06 | 10:53 | NW 15 G 23 | 10.00 | Overcast | OVC038 | 37.9 | 19.9 | 48% | 30 | 30.04 | 1018.8 | ||||||
| 06 | 09:53 | NW 14 | 10.00 | Overcast | OVC038 | 36 | 19.9 | 52% | 28 | 30.04 | 1018.7 | ||||||
| 06 | 08:53 | NW 12 | 10.00 | Overcast | OVC039 | 35.1 | 21 | 57% | 28 | 30.03 | 1018.3 | ||||||
| 06 | 07:53 | NW 8 | 10.00 | Overcast | OVC043 | 35.1 | 21 | 57% | 29 | 30.02 | 1017.9 | ||||||
| 06 | 06:53 | NW 12 | 10.00 | Overcast | OVC043 | 34 | 21.9 | 35.1 | 34 | 61% | 26 | 30 | 1017.2 | ||||
| 06 | 05:53 | NW 9 | 10.00 | Overcast | FEW037 OVC048 | 34 | 21.9 | 61% | 27 | 29.98 | 1016.8 | ||||||
| 06 | 04:53 | N 6 | 10.00 | Overcast | OVC048 | 34 | 21.9 | 61% | 29 | 29.98 | 1016.5 | ||||||
| 06 | 03:53 | NW 6 | 10.00 | Overcast | OVC050 | 34 | 21.9 | 61% | 29 | 29.97 | 1016.3 | ||||||
| 06 | 02:53 | N 8 | 10.00 | Overcast | OVC050 | 34 | 21.9 | 61% | 28 | 29.97 | 1016.2 | ||||||
| 06 | 01:53 | N 12 | 10.00 | Overcast | OVC050 | 34 | 21 | 59% | 26 | 29.96 | 1015.9 | ||||||
| 06 | 00:53 | N 8 | 10.00 | Overcast | OVC050 | 34 | 21.9 | 41 | 33.1 | 61% | 28 | 29.97 | 1016.2 | ||||
| 05 | 23:53 | NW 7 | 10.00 | Mostly Cloudy | BKN050 | 33.1 | 21.9 | 64% | 28 | 29.96 | 1015.9 | ||||||
| 05 | 22:53 | NW 8 | 10.00 | Fair | CLR | 33.1 | 19.9 | 58% | 27 | 29.95 | 1015.6 | ||||||
| 05 | 21:53 | NW 7 | 10.00 | Fair | CLR | 35.1 | 19.9 | 54% | 30 | 29.94 | 1015.2 | ||||||
| 05 | 20:53 | NW 10 | 10.00 | Partly Cloudy | SCT050 | 37.9 | 19 | 46% | 32 | 29.92 | 1014.5 | ||||||
| 05 | 19:53 | NW 14 | 10.00 | Mostly Cloudy | BKN050 | 39.9 | 19.9 | 45% | 33 | 29.91 | 1014.1 | ||||||
| 05 | 18:53 | NW 20 G 26 | 10.00 | Overcast | OVC047 | 41 | 19.9 | 45 | 41 | 43% | 33 | 29.9 | 1013.8 | ||||
| 05 | 17:53 | NW 16 G 29 | 10.00 | Mostly Cloudy | BKN049 | 42.1 | 21 | 43% | 35 | 29.9 | 1014.0 | ||||||
| 05 | 16:53 | NW 16 G 26 | 10.00 | Overcast | OVC049 | 43 | 21.9 | 43% | 36 | 29.89 | 1013.7 | ||||||
| 05 | 15:53 | NW 21 G 28 | 10.00 | Overcast and Breezy | OVC050 | 43 | 19.9 | 40% | 35 | 29.89 | 1013.4 | ||||||
| 05 | 14:53 | NW 14 G 28 | 10.00 | Overcast | OVC050 | 44.1 | 21 | 40% | 38 | 29.89 | 1013.3 | ||||||
| 05 | 13:53 | NW 20 G 25 | 10.00 | Overcast | OVC050 | 43 | 19.9 | 40% | 35 | 29.88 | 1013.0 | ||||||
| 05 | 12:53 | NW 20 G 30 | 10.00 | Overcast | OVC050 | 43 | 19.9 | 45 | 32 | 40% | 35 | 29.86 | 1012.4 | ||||
| 05 | 11:53 | NW 15 G 23 | 10.00 | Overcast | OVC055 | 43 | 19.9 | 40% | 36 | 29.86 | 1012.4 | ||||||
| 05 | 10:53 | NW 15 G 22 | 10.00 | Mostly Cloudy | BKN049 | 43 | 21 | 42% | 36 | 29.85 | 1012.0 | ||||||
| 05 | 09:53 | W 14 G 22 | 10.00 | Fair | CLR | 42.1 | 23 | 47% | 35 | 29.85 | 1012.0 | ||||||
| 05 | 08:53 | NW 9 | 10.00 | Fair | CLR | 39 | 19.9 | 46% | 33 | 29.84 | 1011.6 | ||||||
| 05 | 07:53 | NW 12 | 10.00 | Fair | CLR | 36 | 21.9 | 57% | 29 | 29.82 | 1011.1 | ||||||
| 05 | 06:53 | NW 6 | 10.00 | Fair | CLR | 32 | 21.9 | 39 | 30 | 66% | 27 | 29.8 | 1010.5 | ||||
| 05 | 05:53 | NW 5 | 10.00 | Fair | CLR | 30 | 21.9 | 72% | 26 | 29.79 | 1010.1 | ||||||
| 05 | 04:53 | N 7 | 10.00 | Mostly Cloudy | FEW065 BKN080 | 32 | 21 | 64% | 26 | 29.79 | 1010.1 | ||||||
| 05 | 03:53 | N 10 | 10.00 | Overcast | OVC080 | 35.1 | 24.1 | 64% | 28 | 29.78 | 1009.7 | ||||||
| 05 | 02:53 | NW 9 | 10.00 | Mostly Cloudy | BKN080 | 37 | 26.1 | 65% | 31 | 29.77 | 1009.2 | ||||||
| 05 | 01:53 | NW 10 | 10.00 | Overcast | OVC080 | 39 | 25 | 57% | 33 | 29.77 | 1008.9 | ||||||
| 05 | 00:53 | NW 10 | 10.00 | Overcast | OVC085 | 39 | 27 | 48 | 37 | 62% | 33 | 29.76 | 1008.7 | ||||
| 04 | 23:53 | NW 7 | 10.00 | Overcast | OVC085 | 37 | 27 | 67% | 32 | 29.75 | 1008.5 | ||||||
| 04 | 22:53 | NW 10 | 10.00 | Overcast | OVC080 | 41 | 26.1 | 55% | 35 | 29.75 | 1008.3 | ||||||
| 04 | 21:53 | NW 8 | 10.00 | Overcast | OVC080 | 42.1 | 21.9 | 45% | 38 | 29.73 | 1007.7 | ||||||
| 04 | 20:53 | NW 16 G 24 | 10.00 | A Few Clouds | FEW080 | 43 | 21 | 42% | 36 | 29.71 | 1006.9 | ||||||
| 04 | 19:53 | NW 21 G 32 | 10.00 | A Few Clouds and Breezy | FEW080 | 45 | 24.1 | 44% | 37 | 29.69 | 1006.1 | ||||||
| 04 | 18:53 | NW 25 G 35 | 10.00 | Overcast and Breezy | SCT065 OVC080 | 46.9 | 25 | 52 | 46 | 42% | 39 | 29.68 | 1005.9 | ||||
| 04 | 17:53 | NW 21 G 35 | 10.00 | Overcast and Breezy | OVC070 | 46.9 | 21.9 | 37% | 40 | 29.68 | 1005.8 | ||||||
| 04 | 16:53 | NW 18 G 26 | 10.00 | Overcast | OVC055 | 48 | 24.1 | 39% | 42 | 29.68 | 1005.5 | ||||||
| Date | Time (cdt) | Wind (mph) | Vis. (mi.) | Weather | Sky Cond. | Air | Dwpt | Max. | Min. | Relative Humidity | Wind Chill (°F) | Heat Index (°F) | altimeter (in) | sea level (mb) | 1 hr | 3 hr | 6 hr |
| 6 hour | |||||||||||||||||
| Temperature (ºF) | Pressure | Precipitation (in) | |||||||||||||||